createdAt,value
2022-10-06T00:01:05.226Z,64.44
2022-10-06T00:03:31.798Z,64.42
2022-10-06T00:06:02.141Z,64.62
2022-10-06T00:08:31.089Z,64.52
2022-10-06T00:10:57.796Z,64.45
2022-10-06T00:13:24.817Z,64.36
2022-10-06T00:15:51.669Z,64.37
2022-10-06T00:18:18.278Z,64.42
2022-10-06T00:20:44.735Z,64.42
2022-10-06T00:23:11.527Z,64.40
2022-10-06T00:25:38.823Z,64.38
2022-10-06T00:28:05.676Z,64.45
2022-10-06T00:30:32.406Z,64.57
2022-10-06T00:33:00.879Z,64.52
2022-10-06T00:35:33.842Z,64.59
2022-10-06T00:38:01.110Z,64.54
2022-10-06T00:40:27.661Z,64.54
2022-10-06T00:43:01.332Z,64.51
2022-10-06T00:45:39.664Z,64.55
2022-10-06T00:48:10.773Z,64.48
2022-10-06T00:50:37.929Z,64.47
2022-10-06T00:53:04.451Z,64.43
2022-10-06T00:55:31.220Z,64.50
2022-10-06T00:57:57.852Z,64.51
2022-10-06T01:00:24.358Z,64.52
2022-10-06T01:02:57.504Z,64.50
2022-10-06T01:05:27.573Z,64.52
2022-10-06T01:07:54.128Z,64.59
2022-10-06T01:10:21.034Z,64.72
2022-10-06T01:12:48.234Z,64.69
2022-10-06T01:15:15.675Z,64.65
2022-10-06T01:17:44.500Z,64.71
2022-10-06T01:20:12.991Z,64.69
2022-10-06T01:22:43.464Z,64.60
2022-10-06T01:25:11.674Z,64.62
2022-10-06T01:27:38.966Z,64.69
2022-10-06T01:30:09.656Z,64.73
2022-10-06T01:32:37.781Z,64.73
2022-10-06T01:35:05.586Z,64.76
2022-10-06T01:37:32.106Z,64.81
2022-10-06T01:39:59.074Z,64.81
2022-10-06T01:42:25.779Z,64.71
2022-10-06T01:44:52.510Z,64.83
2022-10-06T01:47:19.129Z,64.86
2022-10-06T01:49:45.587Z,64.88
2022-10-06T01:52:12.474Z,64.95
2022-10-06T01:54:39.247Z,64.93
2022-10-06T01:57:09.098Z,64.92
2022-10-06T01:59:35.674Z,64.93
2022-10-06T02:02:02.457Z,65.06
2022-10-06T02:04:29.063Z,65.04
2022-10-06T02:06:55.715Z,65.09
2022-10-06T02:09:23.559Z,65.08
2022-10-06T02:11:50.182Z,65.09
2022-10-06T02:14:18.140Z,65.19
2022-10-06T02:16:45.370Z,65.18
2022-10-06T02:19:11.874Z,65.22
2022-10-06T02:21:38.957Z,65.24
2022-10-06T02:24:05.789Z,65.28
2022-10-06T02:26:32.547Z,65.44
2022-10-06T02:28:59.277Z,65.49
2022-10-06T02:31:26.086Z,65.57
2022-10-06T02:33:52.852Z,65.46
2022-10-06T02:36:19.581Z,65.56
2022-10-06T02:38:46.353Z,65.75
2022-10-06T02:41:12.806Z,65.67
2022-10-06T02:43:39.606Z,65.63
2022-10-06T02:46:08.442Z,65.66
2022-10-06T02:48:35.077Z,65.73
2022-10-06T02:51:09.771Z,65.77
2022-10-06T02:53:36.547Z,65.74
2022-10-06T02:56:05.497Z,65.87
2022-10-06T02:58:32.666Z,65.93
2022-10-06T03:03:57.154Z,65.99
2022-10-06T03:06:25.293Z,66.24
2022-10-06T03:08:56.417Z,66.15
2022-10-06T03:11:30.232Z,66.28
2022-10-06T03:13:57.210Z,66.23
2022-10-06T03:16:25.494Z,66.43
2022-10-06T03:18:54.196Z,66.44
2022-10-06T03:21:22.527Z,66.49
2022-10-06T03:23:49.834Z,66.52
2022-10-06T03:26:17.979Z,66.48
2022-10-06T03:28:44.999Z,66.47
2022-10-06T03:31:11.742Z,66.46
2022-10-06T03:33:38.566Z,66.46
2022-10-06T03:36:09.699Z,66.50
2022-10-06T03:38:36.461Z,66.45
2022-10-06T03:41:06.754Z,66.62
2022-10-06T03:43:33.882Z,66.56
2022-10-06T03:46:03.524Z,66.71
2022-10-06T03:48:31.838Z,66.67
2022-10-06T03:51:19.505Z,66.68
2022-10-06T03:53:47.563Z,66.58
2022-10-06T03:56:16.546Z,66.63
2022-10-06T03:58:44.607Z,66.62
2022-10-06T04:01:14.332Z,66.69
2022-10-06T04:03:40.809Z,66.67
2022-10-06T04:06:09.737Z,66.69
2022-10-06T04:08:36.953Z,66.59
2022-10-06T04:11:16.306Z,66.64
2022-10-06T04:13:43.574Z,66.52
2022-10-06T04:16:18.369Z,66.62
2022-10-06T04:18:46.273Z,66.63
2022-10-06T04:21:13.084Z,66.68
2022-10-06T04:23:39.638Z,66.72
2022-10-06T04:26:09.941Z,66.71
2022-10-06T04:28:38.247Z,66.79
2022-10-06T04:31:07.112Z,66.86
2022-10-06T04:33:34.558Z,66.95
2022-10-06T04:36:03.226Z,67.10
2022-10-06T04:38:32.195Z,67.02
2022-10-06T04:41:13.025Z,67.06
2022-10-06T04:43:39.562Z,67.15
2022-10-06T04:46:23.973Z,67.30
2022-10-06T04:48:53.925Z,67.05
2022-10-06T04:51:21.443Z,67.27
2022-10-06T04:53:48.385Z,67.21
2022-10-06T04:56:29.789Z,67.17
2022-10-06T04:58:56.456Z,67.07
2022-10-06T05:01:24.706Z,67.17
2022-10-06T05:03:53.419Z,67.13
2022-10-06T05:06:27.766Z,67.15
2022-10-06T05:08:56.171Z,67.23
2022-10-06T05:11:25.826Z,67.19
2022-10-06T05:13:54.960Z,66.77
2022-10-06T05:16:21.867Z,66.13
2022-10-06T05:18:48.386Z,65.18
2022-10-06T05:21:19.640Z,63.51
2022-10-06T05:23:46.400Z,62.38
2022-10-06T05:26:14.509Z,60.33
2022-10-06T05:28:41.267Z,58.18
2022-10-06T05:31:11.670Z,56.88
2022-10-06T05:33:38.344Z,55.55
2022-10-06T05:36:06.502Z,54.75
2022-10-06T05:38:33.550Z,53.05
2022-10-06T05:41:13.679Z,51.31
2022-10-06T05:43:40.664Z,49.30
2022-10-06T05:46:09.232Z,47.32
2022-10-06T05:48:35.985Z,45.40
2022-10-06T05:51:03.890Z,43.16
2022-10-06T05:53:30.899Z,43.19
2022-10-06T05:56:05.563Z,43.18
2022-10-06T05:58:32.904Z,43.59
2022-10-06T06:01:29.771Z,44.57
2022-10-06T06:04:00.283Z,45.40
2022-10-06T06:06:34.596Z,45.24
2022-10-06T06:09:08.953Z,44.77
2022-10-06T06:11:37.473Z,43.67
2022-10-06T06:14:08.757Z,41.93
2022-10-06T06:16:37.110Z,41.20
2022-10-06T06:19:04.037Z,42.27
2022-10-06T06:21:30.663Z,42.73
2022-10-06T06:23:57.288Z,42.73
2022-10-06T06:26:28.882Z,42.96
2022-10-06T06:28:57.155Z,43.63
2022-10-06T06:31:27.104Z,43.94
2022-10-06T06:33:54.987Z,43.85
2022-10-06T06:36:25.939Z,43.98
2022-10-06T06:38:56.476Z,43.68
2022-10-06T06:41:24.363Z,41.77
2022-10-06T06:43:51.209Z,40.52
2022-10-06T06:46:18.793Z,39.95
2022-10-06T06:48:47.225Z,40.14
2022-10-06T06:51:13.877Z,40.61
2022-10-06T06:53:40.941Z,40.79
2022-10-06T06:56:08.599Z,40.97
2022-10-06T06:58:35.641Z,39.31
2022-10-06T07:01:11.203Z,37.22
2022-10-06T07:03:56.479Z,35.62
2022-10-06T07:06:28.095Z,35.67
2022-10-06T07:08:55.350Z,35.74
2022-10-06T07:11:23.503Z,35.95
2022-10-06T07:13:54.913Z,36.45
2022-10-06T07:16:40.781Z,37.05
2022-10-06T07:19:26.232Z,37.94
2022-10-06T07:22:11.816Z,38.50
2022-10-06T07:24:57.500Z,39.00
2022-10-06T07:27:24.263Z,39.86
2022-10-06T07:29:54.469Z,40.11
2022-10-06T07:32:22.956Z,40.30
2022-10-06T07:34:50.141Z,40.21
2022-10-06T07:37:18.034Z,40.59
2022-10-06T07:39:45.203Z,40.28
2022-10-06T07:42:15.231Z,40.58
2022-10-06T07:44:42.270Z,40.95
2022-10-06T07:47:09.320Z,41.35
2022-10-06T07:49:35.939Z,41.41
2022-10-06T07:52:05.255Z,41.52
2022-10-06T07:54:32.299Z,41.77
2022-10-06T07:56:58.763Z,41.44
2022-10-06T07:59:25.277Z,40.47
2022-10-06T08:01:53.217Z,39.52
2022-10-06T08:04:19.737Z,38.63
2022-10-06T08:06:47.727Z,37.98
2022-10-06T08:09:14.418Z,37.26
2022-10-06T08:11:41.035Z,36.73
2022-10-06T08:14:07.482Z,35.77
2022-10-06T08:16:37.550Z,35.64
2022-10-06T08:19:05.228Z,35.12
2022-10-06T08:21:34.380Z,35.03
2022-10-06T08:24:02.251Z,34.68
2022-10-06T08:26:29.253Z,34.40
2022-10-06T08:29:03.280Z,33.93
2022-10-06T08:31:30.474Z,33.18
2022-10-06T08:33:57.313Z,33.89
2022-10-06T08:36:30.984Z,33.71
2022-10-06T08:38:58.920Z,33.46
2022-10-06T08:41:44.899Z,33.38
2022-10-06T08:44:18.934Z,33.28
2022-10-06T08:47:00.621Z,32.70
2022-10-06T08:49:37.113Z,32.82
2022-10-06T08:52:15.777Z,32.59
2022-10-06T08:54:49.388Z,32.17
2022-10-06T08:57:27.211Z,32.69
2022-10-06T08:59:54.291Z,32.39
2022-10-06T09:02:39.221Z,32.48
2022-10-06T09:05:06.624Z,32.69
2022-10-06T09:07:42.262Z,32.54
2022-10-06T09:10:49.353Z,32.11
2022-10-06T09:13:44.438Z,32.46
2022-10-06T09:16:14.674Z,32.06
2022-10-06T09:21:36.507Z,32.41
2022-10-06T09:24:07.230Z,32.18
2022-10-06T09:26:33.890Z,32.20
2022-10-06T09:29:00.782Z,32.27
2022-10-06T09:31:29.092Z,32.52
2022-10-06T09:34:04.780Z,32.66
2022-10-06T09:36:32.005Z,33.14
2022-10-06T09:38:59.466Z,33.10
2022-10-06T09:41:29.908Z,33.09
2022-10-06T09:43:58.810Z,33.38
2022-10-06T09:46:31.590Z,33.72
2022-10-06T09:49:10.249Z,33.95
2022-10-06T09:51:38.317Z,34.42
2022-10-06T09:54:14.330Z,34.15
2022-10-06T09:56:42.159Z,34.66
2022-10-06T09:59:22.642Z,34.48
2022-10-06T10:02:00.099Z,34.39
2022-10-06T10:04:33.308Z,34.70
2022-10-06T10:07:26.753Z,35.00
2022-10-06T10:09:54.001Z,34.82
2022-10-06T10:12:33.502Z,35.08
2022-10-06T10:15:23.828Z,35.00
2022-10-06T10:17:51.484Z,34.74
2022-10-06T10:20:36.354Z,35.24
2022-10-06T10:23:31.630Z,35.00
2022-10-06T10:26:01.738Z,35.26
2022-10-06T10:28:40.373Z,35.27
2022-10-06T10:31:20.403Z,35.43
2022-10-06T10:34:23.136Z,35.24
2022-10-06T10:36:52.114Z,35.17
2022-10-06T10:39:27.314Z,35.01
2022-10-06T10:41:53.856Z,35.01
2022-10-06T10:44:31.118Z,35.32
2022-10-06T10:47:06.180Z,34.72
2022-10-06T10:49:33.004Z,34.81
2022-10-06T10:52:10.009Z,34.79
2022-10-06T10:54:44.793Z,35.11
2022-10-06T10:57:14.008Z,35.33
2022-10-06T10:59:58.691Z,35.31
2022-10-06T11:02:25.391Z,36.03
2022-10-06T11:04:58.227Z,36.18
2022-10-06T11:07:39.258Z,36.61
2022-10-06T11:10:23.177Z,37.04
2022-10-06T11:13:15.003Z,37.63
2022-10-06T11:15:46.663Z,37.76
2022-10-06T11:18:35.162Z,38.21
2022-10-06T11:21:34.656Z,38.58
2022-10-06T11:24:06.854Z,39.07
2022-10-06T11:26:41.173Z,39.55
2022-10-06T11:29:35.246Z,39.93
2022-10-06T11:32:41.784Z,40.08
2022-10-06T11:35:19.692Z,40.33
2022-10-06T11:38:00.314Z,40.65
2022-10-06T11:41:09.758Z,40.41
2022-10-06T11:43:46.845Z,40.53
2022-10-06T11:46:13.330Z,40.38
2022-10-06T11:48:40.580Z,40.08
2022-10-06T11:51:25.432Z,39.80
2022-10-06T11:53:52.435Z,39.72
2022-10-06T11:56:19.363Z,39.45
2022-10-06T11:58:52.060Z,39.37
2022-10-06T12:01:30.778Z,39.45
2022-10-06T12:04:09.667Z,39.46
2022-10-06T12:06:42.501Z,39.45
2022-10-06T12:09:28.775Z,39.58
2022-10-06T12:12:01.758Z,39.65
2022-10-06T12:17:36.088Z,40.48
2022-10-06T12:20:21.238Z,40.84
2022-10-06T12:22:50.858Z,41.17
2022-10-06T12:25:49.580Z,41.59
2022-10-06T12:28:35.856Z,41.69
2022-10-06T12:31:21.396Z,41.66
2022-10-06T12:33:48.416Z,41.50
2022-10-06T12:36:28.694Z,41.46
2022-10-06T12:39:05.183Z,41.64
2022-10-06T12:41:54.664Z,41.34
2022-10-06T12:44:23.096Z,41.72
2022-10-06T12:46:49.691Z,41.80
2022-10-06T12:50:00.415Z,42.03
2022-10-06T12:52:34.576Z,42.27
2022-10-06T12:55:29.068Z,42.61
2022-10-06T12:57:55.957Z,42.80
2022-10-06T13:00:39.772Z,42.94
2022-10-06T13:03:08.992Z,43.08
2022-10-06T13:05:35.807Z,43.17
2022-10-06T13:08:03.340Z,42.88
2022-10-06T13:10:30.137Z,43.10
2022-10-06T13:12:58.138Z,43.16
2022-10-06T13:15:33.422Z,42.96
2022-10-06T13:18:03.739Z,42.98
2022-10-06T13:20:35.625Z,42.97
2022-10-06T13:23:17.225Z,42.85
2022-10-06T13:25:48.281Z,43.00
2022-10-06T13:28:27.483Z,42.90
2022-10-06T13:33:36.252Z,43.34
2022-10-06T13:36:03.051Z,43.14
2022-10-06T13:38:34.879Z,43.44
2022-10-06T13:41:05.455Z,43.62
2022-10-06T13:43:35.074Z,43.97
2022-10-06T13:46:08.701Z,43.93
2022-10-06T13:48:35.208Z,44.36
2022-10-06T13:51:03.519Z,44.68
2022-10-06T13:53:31.413Z,45.17
2022-10-06T13:55:59.127Z,45.37
2022-10-06T13:58:27.696Z,45.63
2022-10-06T14:00:57.827Z,45.81
2022-10-06T14:03:29.000Z,46.09
2022-10-06T14:06:09.321Z,46.19
2022-10-06T14:08:36.127Z,46.55
2022-10-06T14:11:04.944Z,46.91
2022-10-06T14:13:35.029Z,47.23
2022-10-06T14:16:06.432Z,47.30
2022-10-06T14:18:36.602Z,47.46
2022-10-06T14:21:19.519Z,47.74
2022-10-06T14:23:50.810Z,47.99
2022-10-06T14:26:19.105Z,48.09
2022-10-06T14:28:51.941Z,48.30
2022-10-06T14:31:22.207Z,48.51
2022-10-06T14:33:51.462Z,48.62
2022-10-06T14:36:28.940Z,48.91
2022-10-06T14:38:56.668Z,49.20
2022-10-06T14:41:55.505Z,49.46
2022-10-06T14:44:22.170Z,49.57
2022-10-06T14:46:48.964Z,49.64
2022-10-06T14:49:16.061Z,49.90
2022-10-06T14:51:43.403Z,50.14
2022-10-06T14:54:10.609Z,50.16
2022-10-06T14:56:39.158Z,50.22
2022-10-06T14:59:07.060Z,50.16
2022-10-06T15:01:34.685Z,50.42
2022-10-06T15:04:03.204Z,50.22
2022-10-06T15:06:48.212Z,50.25
2022-10-06T15:09:15.120Z,50.25
2022-10-06T15:11:41.628Z,50.11
2022-10-06T15:14:08.709Z,50.17
2022-10-06T15:16:37.330Z,50.24
2022-10-06T15:19:05.649Z,50.25
2022-10-06T15:21:33.239Z,50.34
2022-10-06T15:24:02.159Z,50.15
2022-10-06T15:26:47.627Z,50.48
2022-10-06T15:29:14.775Z,50.60
2022-10-06T15:31:43.255Z,50.83
2022-10-06T15:34:12.209Z,50.85
2022-10-06T15:36:42.679Z,50.95
2022-10-06T15:39:13.701Z,51.07
2022-10-06T15:41:41.270Z,51.26
2022-10-06T15:44:09.161Z,51.26
2022-10-06T15:46:39.989Z,51.40
2022-10-06T15:49:11.143Z,51.50
2022-10-06T15:51:57.279Z,51.56
2022-10-06T15:54:27.817Z,51.70
2022-10-06T15:56:59.111Z,51.91
2022-10-06T15:59:26.182Z,52.02
2022-10-06T16:01:57.542Z,52.12
2022-10-06T16:04:47.641Z,52.31
2022-10-06T16:07:18.438Z,52.43
2022-10-06T16:09:46.576Z,52.67
2022-10-06T16:12:16.375Z,52.90
2022-10-06T16:14:43.236Z,53.02
2022-10-06T16:17:10.142Z,53.03
2022-10-06T16:19:37.163Z,53.38
2022-10-06T16:22:04.596Z,53.55
2022-10-06T16:24:31.416Z,53.72
2022-10-06T16:26:59.804Z,53.96
2022-10-06T16:29:27.131Z,54.13
2022-10-06T16:31:53.657Z,54.43
2022-10-06T16:34:20.309Z,54.75
2022-10-06T16:36:47.151Z,55.01
2022-10-06T16:39:15.206Z,55.08
2022-10-06T16:41:41.794Z,55.29
2022-10-06T16:44:08.585Z,55.77
2022-10-06T16:46:35.114Z,56.07
2022-10-06T16:49:02.360Z,56.33
2022-10-06T16:51:35.960Z,56.66
2022-10-06T16:54:07.079Z,56.91
2022-10-06T16:56:40.200Z,57.13
2022-10-06T16:59:12.023Z,57.21
2022-10-06T17:01:38.823Z,57.58
2022-10-06T17:04:16.884Z,57.83
2022-10-06T17:06:57.053Z,57.94
2022-10-06T17:09:25.253Z,58.10
2022-10-06T17:11:56.075Z,58.55
2022-10-06T17:14:22.912Z,58.73
2022-10-06T17:16:51.133Z,58.99
2022-10-06T17:19:18.985Z,59.14
2022-10-06T17:21:48.101Z,59.25
2022-10-06T17:24:18.174Z,59.61
2022-10-06T17:26:46.728Z,59.73
2022-10-06T17:29:16.065Z,59.99
2022-10-06T17:31:43.316Z,60.10
2022-10-06T17:34:12.023Z,60.34
2022-10-06T17:36:39.491Z,60.28
2022-10-06T17:39:06.892Z,60.56
2022-10-06T17:41:35.262Z,60.61
2022-10-06T17:44:03.923Z,60.78
2022-10-06T17:46:41.272Z,61.06
2022-10-06T17:49:09.045Z,61.14
2022-10-06T17:51:37.278Z,61.50
2022-10-06T17:54:05.332Z,61.37
2022-10-06T17:56:35.773Z,61.57
2022-10-06T17:59:07.591Z,61.53
2022-10-06T18:01:34.854Z,61.86
2022-10-06T18:04:03.286Z,61.94
2022-10-06T18:06:30.913Z,62.09
2022-10-06T18:09:00.815Z,62.29
2022-10-06T18:11:35.999Z,62.18
2022-10-06T18:14:07.662Z,62.33
2022-10-06T18:16:39.834Z,62.54
2022-10-06T18:19:11.079Z,62.61
2022-10-06T18:21:41.163Z,62.76
2022-10-06T18:24:10.470Z,62.89
2022-10-06T18:26:38.349Z,62.76
2022-10-06T18:29:05.795Z,62.84
2022-10-06T18:31:32.599Z,62.96
2022-10-06T18:36:46.773Z,63.10
2022-10-06T18:39:13.484Z,63.26
2022-10-06T18:41:41.004Z,63.48
2022-10-06T18:44:08.413Z,63.65
2022-10-06T18:46:54.098Z,63.61
2022-10-06T18:49:22.438Z,63.57
2022-10-06T18:51:57.945Z,63.75
2022-10-06T18:54:31.973Z,63.74
2022-10-06T18:56:58.499Z,63.75
2022-10-06T18:59:31.379Z,63.89
2022-10-06T19:02:00.561Z,63.82
2022-10-06T19:04:27.305Z,63.74
2022-10-06T19:06:54.619Z,63.80
2022-10-06T19:09:23.461Z,64.06
2022-10-06T19:11:58.034Z,64.11
2022-10-06T19:14:31.005Z,64.06
2022-10-06T19:16:59.698Z,64.07
2022-10-06T19:19:27.276Z,64.13
2022-10-06T19:22:01.488Z,64.14
2022-10-06T19:24:41.490Z,64.39
2022-10-06T19:27:13.574Z,64.43
2022-10-06T19:29:44.153Z,64.51
2022-10-06T19:32:10.658Z,64.67
2022-10-06T19:34:37.525Z,64.82
2022-10-06T19:37:04.777Z,64.96
2022-10-06T19:39:32.152Z,65.27
2022-10-06T19:42:17.544Z,65.39
2022-10-06T19:44:44.658Z,65.37
2022-10-06T19:47:13.088Z,65.49
2022-10-06T19:49:39.662Z,65.36
2022-10-06T19:52:08.237Z,65.32
2022-10-06T19:54:35.229Z,65.35
2022-10-06T19:57:05.454Z,65.36
2022-10-06T19:59:32.805Z,65.43
2022-10-06T20:01:59.287Z,65.45
2022-10-06T20:04:26.487Z,65.64
2022-10-06T20:06:53.090Z,65.83
2022-10-06T20:09:21.861Z,65.65
2022-10-06T20:11:49.679Z,65.65
2022-10-06T20:14:21.312Z,65.65
2022-10-06T20:16:49.293Z,65.69
2022-10-06T20:19:16.668Z,65.83
2022-10-06T20:21:43.259Z,65.92
2022-10-06T20:24:22.958Z,66.08
2022-10-06T20:26:50.740Z,66.26
2022-10-06T20:29:22.907Z,66.29
2022-10-06T20:31:54.200Z,66.20
2022-10-06T20:34:22.359Z,66.26
2022-10-06T20:36:53.230Z,66.25
2022-10-06T20:39:41.199Z,66.18
2022-10-06T20:42:12.238Z,66.25
2022-10-06T20:44:42.045Z,66.37
2022-10-06T20:47:09.599Z,66.22
2022-10-06T20:49:36.309Z,66.20
2022-10-06T20:52:03.472Z,66.28
2022-10-06T20:54:35.950Z,66.30
2022-10-06T20:57:04.154Z,66.31
2022-10-06T20:59:30.670Z,66.50
2022-10-06T21:01:59.911Z,66.59
2022-10-06T21:04:30.104Z,66.63
2022-10-06T21:06:57.247Z,66.78
2022-10-06T21:09:24.697Z,66.98
2022-10-06T21:11:51.338Z,67.05
2022-10-06T21:14:18.310Z,67.17
2022-10-06T21:16:45.718Z,67.02
2022-10-06T21:19:16.738Z,67.22
2022-10-06T21:21:45.734Z,67.32
2022-10-06T21:24:12.464Z,67.66
2022-10-06T21:26:39.189Z,67.73
2022-10-06T21:29:05.686Z,67.74
2022-10-06T21:31:33.521Z,67.75
2022-10-06T21:34:01.364Z,67.75
2022-10-06T21:36:29.214Z,67.78
2022-10-06T21:38:57.244Z,67.62
2022-10-06T21:41:40.463Z,67.16
2022-10-06T21:44:08.884Z,67.18
2022-10-06T21:46:51.225Z,67.18
2022-10-06T21:49:19.428Z,67.03
2022-10-06T21:51:47.193Z,67.07
2022-10-06T21:54:13.973Z,67.18
2022-10-06T21:56:40.750Z,67.43
2022-10-06T21:59:07.488Z,67.40
2022-10-06T22:01:39.124Z,67.56
2022-10-06T22:04:06.513Z,67.43
2022-10-06T22:06:34.413Z,67.47
2022-10-06T22:09:01.025Z,67.59
2022-10-06T22:11:29.180Z,67.34
2022-10-06T22:13:57.340Z,67.52
2022-10-06T22:16:25.525Z,67.49
2022-10-06T22:18:52.597Z,67.28
2022-10-06T22:21:30.249Z,67.28
2022-10-06T22:24:01.424Z,67.31
2022-10-06T22:26:28.658Z,67.16
2022-10-06T22:28:56.072Z,67.15
2022-10-06T22:31:26.035Z,67.09
2022-10-06T22:33:54.668Z,67.05
2022-10-06T22:36:21.149Z,66.98
2022-10-06T22:38:47.860Z,67.18
2022-10-06T22:41:14.423Z,67.05
2022-10-06T22:43:40.938Z,67.08
2022-10-06T22:46:07.913Z,67.30
2022-10-06T22:48:34.494Z,67.59
2022-10-06T22:51:01.100Z,67.64
2022-10-06T22:53:30.439Z,67.61
2022-10-06T22:55:57.744Z,67.63
2022-10-06T22:58:24.678Z,67.76
2022-10-06T23:00:51.338Z,67.80
2022-10-06T23:03:18.224Z,67.92
2022-10-06T23:05:58.194Z,68.09
2022-10-06T23:08:25.092Z,68.04
2022-10-06T23:10:51.940Z,68.35
2022-10-06T23:13:18.639Z,68.56
2022-10-06T23:15:45.179Z,68.69
2022-10-06T23:18:11.821Z,68.93
2022-10-06T23:20:38.638Z,68.72
2022-10-06T23:23:05.229Z,68.64
2022-10-06T23:25:31.971Z,68.72
2022-10-06T23:27:58.825Z,68.77
2022-10-06T23:30:25.667Z,68.72
2022-10-06T23:32:52.187Z,68.81
2022-10-06T23:35:18.967Z,68.81
2022-10-06T23:37:45.838Z,68.72
2022-10-06T23:40:12.828Z,68.66
2022-10-06T23:42:39.572Z,68.42
2022-10-06T23:45:07.711Z,68.40
2022-10-06T23:47:34.275Z,68.52
2022-10-06T23:50:01.146Z,68.67
2022-10-06T23:52:27.721Z,68.38
2022-10-06T23:54:54.147Z,68.23
2022-10-06T23:57:20.899Z,68.19
2022-10-06T23:59:47.692Z,68.32
